createdAt,value
2023-05-23T00:02:16.762Z,11.88
2023-05-23T00:04:44.434Z,11.80
2023-05-23T00:07:11.844Z,10.45
2023-05-23T00:09:39.045Z,11.40
2023-05-23T00:12:07.059Z,11.32
2023-05-23T00:14:35.289Z,12.68
2023-05-23T00:17:02.644Z,11.90
2023-05-23T00:19:30.014Z,13.43
2023-05-23T00:21:58.657Z,11.07
2023-05-23T00:24:26.176Z,10.95
2023-05-23T00:26:53.515Z,11.48
2023-05-23T00:29:20.962Z,12.73
2023-05-23T00:31:48.341Z,11.05
2023-05-23T00:34:18.680Z,10.95
2023-05-23T00:36:47.843Z,11.40
2023-05-23T00:39:19.955Z,11.88
2023-05-23T00:41:51.811Z,11.38
2023-05-23T00:44:20.370Z,13.10
2023-05-23T00:46:50.066Z,11.75
2023-05-23T00:49:20.428Z,10.10
2023-05-23T00:51:49.748Z,10.32
2023-05-23T00:54:19.447Z,10.90
2023-05-23T00:56:46.978Z,10.05
2023-05-23T00:59:14.763Z,9.93
2023-05-23T01:01:42.354Z,11.40
2023-05-23T01:04:09.783Z,10.32
2023-05-23T01:06:37.683Z,9.70
2023-05-23T01:09:04.885Z,9.25
2023-05-23T01:11:37.856Z,9.82
2023-05-23T01:14:08.250Z,11.38
2023-05-23T01:16:48.886Z,11.00
2023-05-23T01:19:40.785Z,10.13
2023-05-23T01:22:25.192Z,10.55
2023-05-23T01:24:55.493Z,10.10
2023-05-23T01:27:41.608Z,12.13
2023-05-23T01:30:09.542Z,10.38
2023-05-23T01:32:38.056Z,10.75
2023-05-23T01:35:05.776Z,12.63
2023-05-23T01:37:33.120Z,10.73
2023-05-23T01:40:00.380Z,11.02
2023-05-23T01:42:28.513Z,11.43
2023-05-23T01:44:59.299Z,10.77
2023-05-23T01:47:27.399Z,12.13
2023-05-23T01:49:55.495Z,11.27
2023-05-23T01:52:23.340Z,9.45
2023-05-23T01:54:51.721Z,12.93
2023-05-23T01:57:20.369Z,11.18
2023-05-23T01:59:47.708Z,11.75
2023-05-23T02:02:14.960Z,10.00
2023-05-23T02:04:42.184Z,11.00
2023-05-23T02:07:09.356Z,11.57
2023-05-23T02:09:36.615Z,10.75
2023-05-23T02:12:03.866Z,10.13
2023-05-23T02:14:31.298Z,11.88
2023-05-23T02:16:58.573Z,11.70
2023-05-23T02:19:27.017Z,12.30
2023-05-23T02:21:54.246Z,14.77
2023-05-23T02:24:21.463Z,18.50
2023-05-23T02:26:48.603Z,12.23
2023-05-23T02:29:16.951Z,11.90
2023-05-23T02:31:44.259Z,15.32
2023-05-23T02:34:11.610Z,10.38
2023-05-23T02:36:39.305Z,13.77
2023-05-23T02:39:07.143Z,11.73
2023-05-23T02:41:34.373Z,10.95
2023-05-23T02:44:01.694Z,11.10
2023-05-23T02:46:28.947Z,14.93
2023-05-23T02:48:56.296Z,10.60
2023-05-23T02:51:23.550Z,13.02
2023-05-23T02:53:50.773Z,13.25
2023-05-23T02:56:18.912Z,17.33
2023-05-23T02:58:46.597Z,11.75
2023-05-23T03:01:13.835Z,15.63
2023-05-23T03:03:41.835Z,14.18
2023-05-23T03:06:10.653Z,10.85
2023-05-23T03:08:37.889Z,14.35
2023-05-23T03:11:05.372Z,14.00
2023-05-23T03:13:32.748Z,15.93
2023-05-23T03:16:00.008Z,15.02
2023-05-23T03:18:27.248Z,14.13
2023-05-23T03:20:54.596Z,13.25
2023-05-23T03:23:21.829Z,12.63
2023-05-23T03:25:49.701Z,14.25
2023-05-23T03:28:16.832Z,12.20
2023-05-23T03:30:44.084Z,15.43
2023-05-23T03:33:12.375Z,14.85
2023-05-23T03:35:39.766Z,16.98
2023-05-23T03:38:07.563Z,16.20
2023-05-23T03:40:34.792Z,13.70
2023-05-23T03:43:09.298Z,14.60
2023-05-23T03:45:36.595Z,14.88
2023-05-23T03:48:03.904Z,16.77
2023-05-23T03:50:31.217Z,14.70
2023-05-23T03:52:58.485Z,16.02
2023-05-23T03:55:25.816Z,16.25
2023-05-23T03:57:53.045Z,16.67
2023-05-23T04:00:20.325Z,16.75
2023-05-23T04:02:48.373Z,16.80
2023-05-23T04:05:16.198Z,15.70
2023-05-23T04:07:43.873Z,15.95
2023-05-23T04:10:11.205Z,14.23
2023-05-23T04:12:41.505Z,16.60
2023-05-23T04:15:09.124Z,16.23
2023-05-23T04:17:38.991Z,17.55
2023-05-23T04:20:07.982Z,15.15
2023-05-23T04:22:35.292Z,21.02
2023-05-23T04:25:02.472Z,19.10
2023-05-23T04:27:29.756Z,16.98
2023-05-23T04:29:58.303Z,17.30
2023-05-23T04:32:26.371Z,18.90
2023-05-23T04:34:53.702Z,18.17
2023-05-23T04:37:26.328Z,15.02
2023-05-23T04:39:53.805Z,17.35
2023-05-23T04:42:24.652Z,19.52
2023-05-23T04:44:57.529Z,22.20
2023-05-23T04:47:28.007Z,19.80
2023-05-23T04:49:57.145Z,19.15
2023-05-23T04:52:25.457Z,18.52
2023-05-23T04:54:54.134Z,16.55
2023-05-23T04:57:22.180Z,17.52
2023-05-23T04:59:49.427Z,18.33
2023-05-23T05:02:16.599Z,16.38
2023-05-23T05:04:43.787Z,18.05
2023-05-23T05:07:11.294Z,19.08
2023-05-23T05:09:38.550Z,18.38
2023-05-23T05:12:06.193Z,18.42
2023-05-23T05:14:33.408Z,19.08
2023-05-23T05:17:02.920Z,19.30
2023-05-23T05:19:30.616Z,18.45
2023-05-23T05:22:00.342Z,20.20
2023-05-23T05:24:27.899Z,18.02
2023-05-23T05:26:55.780Z,21.27
2023-05-23T05:29:23.427Z,18.42
2023-05-23T05:31:50.924Z,18.45
2023-05-23T05:34:18.387Z,20.05
2023-05-23T05:36:48.449Z,17.65
2023-05-23T05:39:15.758Z,22.02
2023-05-23T05:41:42.988Z,20.65
2023-05-23T05:44:10.710Z,20.15
2023-05-23T05:46:38.002Z,17.10
2023-05-23T05:49:05.324Z,20.25
2023-05-23T05:51:32.582Z,20.80
2023-05-23T05:53:59.840Z,22.58
2023-05-23T05:56:28.137Z,22.27
2023-05-23T05:58:55.498Z,20.95
2023-05-23T06:01:23.626Z,17.02
2023-05-23T06:03:51.063Z,16.70
2023-05-23T06:06:18.420Z,19.02
2023-05-23T06:08:45.699Z,18.75
2023-05-23T06:11:12.889Z,17.08
2023-05-23T06:13:40.092Z,17.40
2023-05-23T06:16:07.698Z,17.50
2023-05-23T06:18:35.059Z,19.30
2023-05-23T06:21:02.513Z,16.23
2023-05-23T06:23:29.709Z,19.08
2023-05-23T06:25:57.186Z,17.02
2023-05-23T06:28:24.382Z,16.73
2023-05-23T06:30:51.963Z,17.50
2023-05-23T06:33:19.130Z,16.50
2023-05-23T06:35:46.992Z,18.25
2023-05-23T06:38:15.814Z,18.92
2023-05-23T06:40:45.165Z,15.32
2023-05-23T06:43:12.722Z,18.02
2023-05-23T06:45:40.102Z,17.70
2023-05-23T06:48:07.436Z,19.50
2023-05-23T06:50:35.941Z,16.42
2023-05-23T06:53:03.274Z,18.63
2023-05-23T06:55:30.634Z,19.63
2023-05-23T06:57:57.822Z,18.65
2023-05-23T07:00:25.061Z,15.27
2023-05-23T07:02:52.394Z,16.17
2023-05-23T07:05:19.780Z,15.57
2023-05-23T07:07:47.211Z,17.63
2023-05-23T07:10:14.426Z,17.85
2023-05-23T07:12:41.796Z,18.85
2023-05-23T07:15:09.269Z,15.25
2023-05-23T07:17:36.590Z,19.75
2023-05-23T07:20:04.731Z,20.02
2023-05-23T07:22:31.934Z,19.35
2023-05-23T07:24:59.134Z,19.60
2023-05-23T07:27:27.717Z,19.35
2023-05-23T07:29:55.062Z,19.13
2023-05-23T07:32:22.286Z,17.83
2023-05-23T07:34:49.484Z,17.83
2023-05-23T07:37:16.740Z,18.67
2023-05-23T07:39:44.131Z,23.10
2023-05-23T07:42:11.962Z,20.23
2023-05-23T07:44:39.140Z,20.65
2023-05-23T07:47:07.691Z,21.02
2023-05-23T07:49:35.863Z,20.27
2023-05-23T07:52:03.101Z,21.58
2023-05-23T07:54:30.312Z,18.38
2023-05-23T07:56:57.557Z,19.50
2023-05-23T07:59:25.640Z,21.38
2023-05-23T08:01:53.037Z,19.85
2023-05-23T08:04:20.269Z,19.58
2023-05-23T08:07:03.647Z,19.42
2023-05-23T08:09:32.678Z,18.33
2023-05-23T08:12:00.841Z,19.95
2023-05-23T08:14:42.328Z,20.75
2023-05-23T08:17:15.751Z,23.35
2023-05-23T08:19:43.984Z,22.88
2023-05-23T08:22:11.245Z,19.95
2023-05-23T08:24:38.659Z,27.20
2023-05-23T08:27:08.133Z,22.42
2023-05-23T08:29:35.433Z,24.92
2023-05-23T08:32:02.717Z,19.85
2023-05-23T08:34:30.032Z,19.85
2023-05-23T08:36:57.305Z,22.88
2023-05-23T08:39:24.537Z,22.23
2023-05-23T08:41:52.333Z,22.30
2023-05-23T08:44:19.604Z,20.55
2023-05-23T08:46:49.361Z,20.65
2023-05-23T08:49:18.521Z,23.05
2023-05-23T08:51:46.411Z,20.60
2023-05-23T08:54:13.685Z,20.88
2023-05-23T08:56:41.394Z,23.27
2023-05-23T08:59:10.553Z,21.52
2023-05-23T09:01:40.016Z,24.63
2023-05-23T09:04:07.794Z,24.17
2023-05-23T09:06:35.471Z,22.65
2023-05-23T09:09:02.758Z,22.52
2023-05-23T09:11:30.028Z,25.13
2023-05-23T09:13:57.836Z,24.10
2023-05-23T09:16:25.338Z,23.38
2023-05-23T09:18:52.687Z,20.42
2023-05-23T09:21:20.469Z,23.23
2023-05-23T09:23:47.997Z,21.30
2023-05-23T09:26:15.783Z,24.15
2023-05-23T09:28:43.921Z,21.27
2023-05-23T09:31:11.234Z,21.90
2023-05-23T09:33:40.849Z,20.92
2023-05-23T09:36:08.468Z,28.52
2023-05-23T09:38:39.748Z,21.63
2023-05-23T09:41:07.240Z,21.77
2023-05-23T09:43:34.603Z,21.67
2023-05-23T09:46:02.477Z,24.63
2023-05-23T09:48:31.668Z,22.88
2023-05-23T09:50:59.852Z,23.75
2023-05-23T09:53:28.339Z,20.55
2023-05-23T09:55:56.727Z,24.25
2023-05-23T09:58:24.891Z,23.95
2023-05-23T10:00:53.314Z,24.55
2023-05-23T10:03:23.813Z,19.90
2023-05-23T10:05:52.829Z,19.92
2023-05-23T10:08:20.546Z,24.33
2023-05-23T10:10:57.337Z,20.02
2023-05-23T10:13:29.115Z,24.35
2023-05-23T10:15:59.037Z,22.10
2023-05-23T10:18:35.958Z,24.63
2023-05-23T10:21:08.635Z,25.05
2023-05-23T10:23:36.646Z,23.67
2023-05-23T10:26:05.166Z,25.38
2023-05-23T10:28:33.990Z,27.77
2023-05-23T10:31:01.260Z,27.40
2023-05-23T10:33:31.087Z,26.13
2023-05-23T10:36:04.410Z,26.00
2023-05-23T10:38:41.804Z,25.58
2023-05-23T10:41:19.485Z,24.50
2023-05-23T10:43:56.508Z,28.63
2023-05-23T10:46:23.862Z,27.33
2023-05-23T10:48:55.307Z,25.35
2023-05-23T10:51:22.871Z,23.25
2023-05-23T10:53:54.234Z,24.80
2023-05-23T10:56:25.981Z,25.17
2023-05-23T10:58:56.849Z,23.20
2023-05-23T11:01:24.322Z,22.50
2023-05-23T11:03:54.770Z,22.65
2023-05-23T11:06:44.567Z,23.83
2023-05-23T11:09:13.404Z,21.60
2023-05-23T11:11:49.738Z,21.85
2023-05-23T11:14:17.078Z,20.25
2023-05-23T11:16:46.667Z,19.40
2023-05-23T11:19:20.383Z,17.60
2023-05-23T11:21:50.879Z,17.95
2023-05-23T11:24:18.122Z,20.77
2023-05-23T11:27:01.289Z,16.10
2023-05-23T11:29:29.142Z,17.08
2023-05-23T11:31:56.953Z,18.00
2023-05-23T11:34:27.755Z,18.08
2023-05-23T11:36:55.722Z,17.20
2023-05-23T11:39:23.744Z,17.75
2023-05-23T11:42:04.151Z,15.10
2023-05-23T11:44:31.683Z,13.43
2023-05-23T11:47:06.750Z,15.90
2023-05-23T11:49:40.374Z,15.02
2023-05-23T11:52:07.972Z,19.15
2023-05-23T11:54:35.389Z,15.68
2023-05-23T11:57:03.643Z,18.55
2023-05-23T11:59:30.998Z,18.65
2023-05-23T12:01:58.259Z,16.65
2023-05-23T12:04:27.172Z,16.70
2023-05-23T12:06:54.919Z,16.88
2023-05-23T12:09:22.324Z,15.98
2023-05-23T12:11:50.415Z,15.90
2023-05-23T12:14:18.869Z,16.23
2023-05-23T12:16:47.352Z,16.50
2023-05-23T12:19:15.370Z,14.50
2023-05-23T12:22:05.401Z,16.10
2023-05-23T12:24:32.812Z,18.13
2023-05-23T12:27:01.035Z,16.52
2023-05-23T12:29:35.888Z,15.00
2023-05-23T12:32:04.641Z,15.75
2023-05-23T12:34:32.008Z,12.93
2023-05-23T12:37:14.992Z,12.10
2023-05-23T12:42:31.007Z,16.13
2023-05-23T12:44:59.085Z,14.35
2023-05-23T12:47:26.861Z,17.60
2023-05-23T12:49:54.566Z,20.58
2023-05-23T12:52:24.535Z,15.52
2023-05-23T12:54:53.279Z,15.95
2023-05-23T12:57:20.589Z,12.68
2023-05-23T12:59:47.756Z,16.65
2023-05-23T13:02:14.956Z,15.30
2023-05-23T13:04:42.167Z,13.82
2023-05-23T13:07:09.676Z,15.52
2023-05-23T13:09:37.081Z,12.63
2023-05-23T13:12:04.444Z,15.63
2023-05-23T13:14:31.596Z,14.52
2023-05-23T13:16:58.954Z,15.30
2023-05-23T13:19:28.423Z,15.45
2023-05-23T13:21:55.755Z,13.93
2023-05-23T13:24:23.130Z,16.45
2023-05-23T13:26:51.041Z,14.93
2023-05-23T13:29:18.266Z,14.05
2023-05-23T13:31:46.553Z,11.95
2023-05-23T13:34:14.281Z,13.85
2023-05-23T13:36:41.602Z,16.95
2023-05-23T13:39:08.851Z,15.48
2023-05-23T13:41:38.352Z,16.02
2023-05-23T13:44:05.657Z,19.25
2023-05-23T13:46:33.734Z,15.40
2023-05-23T13:49:08.689Z,14.77
2023-05-23T13:51:37.451Z,15.27
2023-05-23T13:54:05.812Z,18.02
2023-05-23T13:56:33.701Z,16.48
2023-05-23T13:59:01.002Z,16.50
2023-05-23T14:01:28.584Z,12.65
2023-05-23T14:03:56.399Z,15.38
2023-05-23T14:06:23.794Z,13.68
2023-05-23T14:08:51.072Z,16.15
2023-05-23T14:11:18.365Z,12.25
2023-05-23T14:13:45.547Z,12.30
2023-05-23T14:16:14.869Z,12.48
2023-05-23T14:18:42.081Z,13.13
2023-05-23T14:21:09.316Z,15.15
2023-05-23T14:23:36.908Z,13.65
2023-05-23T14:26:04.283Z,13.07
2023-05-23T14:28:31.731Z,12.90
2023-05-23T14:30:59.317Z,9.57
2023-05-23T14:33:26.843Z,11.27
2023-05-23T14:35:55.184Z,11.95
2023-05-23T14:38:22.490Z,10.98
2023-05-23T14:40:49.668Z,11.90
2023-05-23T14:43:17.022Z,12.35
2023-05-23T14:45:44.725Z,11.20
2023-05-23T14:48:13.008Z,12.98
2023-05-23T14:50:40.878Z,13.38
2023-05-23T14:53:08.533Z,12.75
2023-05-23T14:55:36.000Z,10.63
2023-05-23T14:58:04.372Z,13.20
2023-05-23T15:00:33.585Z,11.85
2023-05-23T15:03:00.947Z,11.88
2023-05-23T15:05:28.656Z,11.00
2023-05-23T15:07:57.133Z,11.15
2023-05-23T15:10:25.192Z,10.57
2023-05-23T15:12:52.607Z,9.90
2023-05-23T15:15:23.337Z,9.98
2023-05-23T15:17:51.570Z,12.10
2023-05-23T15:20:19.147Z,12.13
2023-05-23T15:22:46.349Z,11.30
2023-05-23T15:25:13.531Z,13.13
2023-05-23T15:27:41.130Z,10.63
2023-05-23T15:30:08.731Z,11.02
2023-05-23T15:32:36.111Z,11.00
2023-05-23T15:35:03.489Z,15.15
2023-05-23T15:37:30.673Z,11.27
2023-05-23T15:39:57.906Z,12.88
2023-05-23T15:42:25.099Z,13.85
2023-05-23T15:44:52.341Z,11.82
2023-05-23T15:47:21.961Z,11.23
2023-05-23T15:49:49.199Z,10.88
2023-05-23T15:52:16.430Z,12.40
2023-05-23T15:54:43.818Z,14.85
2023-05-23T15:57:11.107Z,10.80
2023-05-23T15:59:41.254Z,11.93
2023-05-23T16:02:10.219Z,12.75
2023-05-23T16:04:38.931Z,10.55
2023-05-23T16:07:09.801Z,13.15
2023-05-23T16:09:37.504Z,11.30
2023-05-23T16:12:04.970Z,15.05
2023-05-23T16:14:32.140Z,11.40
2023-05-23T16:17:02.811Z,12.00
2023-05-23T16:19:30.586Z,11.45
2023-05-23T16:21:57.799Z,10.05
2023-05-23T16:24:26.292Z,9.63
2023-05-23T16:26:53.576Z,8.80
2023-05-23T16:29:21.089Z,9.57
2023-05-23T16:31:48.438Z,8.93
2023-05-23T16:34:16.002Z,8.73
2023-05-23T16:36:43.396Z,11.20
2023-05-23T16:39:11.669Z,8.52
2023-05-23T16:41:38.969Z,12.27
2023-05-23T16:44:06.209Z,8.88
2023-05-23T16:46:33.579Z,11.07
2023-05-23T16:49:00.930Z,7.63
2023-05-23T16:51:29.977Z,10.13
2023-05-23T16:53:57.190Z,6.95
2023-05-23T16:56:24.374Z,7.68
2023-05-23T16:58:51.821Z,5.90
2023-05-23T17:01:19.979Z,5.78
2023-05-23T17:03:47.899Z,7.68
2023-05-23T17:06:15.645Z,7.30
2023-05-23T17:08:44.356Z,5.75
2023-05-23T17:11:16.181Z,7.07
2023-05-23T17:13:45.121Z,4.88
2023-05-23T17:16:13.424Z,5.93
2023-05-23T17:18:42.503Z,4.85
2023-05-23T17:21:09.793Z,4.88
2023-05-23T17:23:37.954Z,5.03
2023-05-23T17:26:05.379Z,5.00
2023-05-23T17:28:33.540Z,4.70
2023-05-23T17:31:00.999Z,6.32
2023-05-23T17:33:28.338Z,5.97
2023-05-23T17:35:55.630Z,7.10
2023-05-23T17:38:31.185Z,5.35
2023-05-23T17:40:58.499Z,4.40
2023-05-23T17:43:26.078Z,4.10
2023-05-23T17:45:53.448Z,4.65
2023-05-23T17:48:23.916Z,6.18
2023-05-23T17:50:58.627Z,5.10
2023-05-23T17:53:25.811Z,3.88
2023-05-23T17:55:53.492Z,7.60
2023-05-23T17:58:21.125Z,4.10
2023-05-23T18:00:48.834Z,8.95
2023-05-23T18:03:16.648Z,3.60
2023-05-23T18:05:44.150Z,6.00
2023-05-23T18:08:11.345Z,5.18
2023-05-23T18:10:38.551Z,3.50
2023-05-23T18:13:06.357Z,3.13
2023-05-23T18:15:33.549Z,4.30
2023-05-23T18:18:00.745Z,3.47
2023-05-23T18:20:28.062Z,4.20
2023-05-23T18:22:55.362Z,3.25
2023-05-23T18:25:28.409Z,3.13
2023-05-23T18:27:59.561Z,3.20
2023-05-23T18:30:27.588Z,4.30
2023-05-23T18:32:55.301Z,6.82
2023-05-23T18:35:23.048Z,6.25
2023-05-23T18:37:50.278Z,4.68
2023-05-23T18:40:17.658Z,4.25
2023-05-23T18:42:44.989Z,4.43
2023-05-23T18:45:12.433Z,3.00
2023-05-23T18:47:39.717Z,4.80
2023-05-23T18:50:07.725Z,4.47
2023-05-23T18:52:37.299Z,3.17
2023-05-23T18:55:05.474Z,3.80
2023-05-23T18:57:34.609Z,3.25
2023-05-23T19:00:02.872Z,3.83
2023-05-23T19:02:30.152Z,5.07
2023-05-23T19:04:57.550Z,4.88
2023-05-23T19:07:24.809Z,2.83
2023-05-23T19:09:52.143Z,3.80
2023-05-23T19:12:19.739Z,4.78
2023-05-23T19:14:47.127Z,3.20
2023-05-23T19:17:15.764Z,3.17
2023-05-23T19:19:43.244Z,4.60
2023-05-23T19:22:10.836Z,3.47
2023-05-23T19:24:38.048Z,2.92
2023-05-23T19:27:06.254Z,2.80
2023-05-23T19:29:33.467Z,2.63
2023-05-23T19:32:00.814Z,2.97
2023-05-23T19:34:28.395Z,3.17
2023-05-23T19:36:55.810Z,2.60
2023-05-23T19:39:23.443Z,4.65
2023-05-23T19:41:50.818Z,5.10
2023-05-23T19:44:18.083Z,2.63
2023-05-23T19:46:45.417Z,3.30
2023-05-23T19:49:14.535Z,3.38
2023-05-23T19:51:41.750Z,3.03
2023-05-23T19:54:09.046Z,2.90
2023-05-23T19:56:36.449Z,3.03
2023-05-23T19:59:03.657Z,2.70
2023-05-23T20:01:33.667Z,3.45
2023-05-23T20:04:01.682Z,4.00
2023-05-23T20:06:28.944Z,2.92
2023-05-23T20:08:56.139Z,3.05
2023-05-23T20:11:23.635Z,4.75
2023-05-23T20:13:50.970Z,4.55
2023-05-23T20:16:18.354Z,3.03
2023-05-23T20:18:45.811Z,4.82
2023-05-23T20:21:13.016Z,3.83
2023-05-23T20:23:43.400Z,4.00
2023-05-23T20:26:10.636Z,4.53
2023-05-23T20:28:37.854Z,3.80
2023-05-23T20:31:05.179Z,4.45
2023-05-23T20:33:34.313Z,3.53
2023-05-23T20:36:01.668Z,3.13
2023-05-23T20:38:29.095Z,3.85
2023-05-23T20:40:56.310Z,4.05
2023-05-23T20:43:23.767Z,3.92
2023-05-23T20:45:51.031Z,4.93
2023-05-23T20:48:18.225Z,4.60
2023-05-23T20:50:45.586Z,4.40
2023-05-23T20:53:12.832Z,3.80
2023-05-23T20:55:40.529Z,4.57
2023-05-23T20:58:08.789Z,4.10
2023-05-23T21:00:35.996Z,3.92
2023-05-23T21:03:03.659Z,3.90
2023-05-23T21:05:30.974Z,4.13
2023-05-23T21:07:58.224Z,4.40
2023-05-23T21:10:25.536Z,6.18
2023-05-23T21:12:52.860Z,5.35
2023-05-23T21:15:20.031Z,3.58
2023-05-23T21:17:47.494Z,3.25
2023-05-23T21:20:16.279Z,3.50
2023-05-23T21:22:43.504Z,4.68
2023-05-23T21:25:10.974Z,4.75
2023-05-23T21:27:38.625Z,3.92
2023-05-23T21:30:06.737Z,4.32
2023-05-23T21:32:33.998Z,3.63
2023-05-23T21:35:01.198Z,4.13
2023-05-23T21:37:28.489Z,3.72
2023-05-23T21:39:55.691Z,3.58
2023-05-23T21:42:24.708Z,3.20
2023-05-23T21:44:51.943Z,4.30
2023-05-23T21:47:21.372Z,3.40
2023-05-23T21:49:48.602Z,4.20
2023-05-23T21:52:15.966Z,3.45
2023-05-23T21:54:43.352Z,4.05
2023-05-23T21:57:10.541Z,3.58
2023-05-23T21:59:37.723Z,3.45
2023-05-23T22:02:05.361Z,3.30
2023-05-23T22:04:33.020Z,4.82
2023-05-23T22:07:00.220Z,15.48
2023-05-23T22:09:27.500Z,4.38
2023-05-23T22:11:54.728Z,3.58
2023-05-23T22:14:22.827Z,6.93
2023-05-23T22:16:50.294Z,4.03
2023-05-23T22:19:21.208Z,3.85
2023-05-23T22:21:48.555Z,5.07
2023-05-23T22:24:15.765Z,4.40
2023-05-23T22:26:43.001Z,3.45
2023-05-23T22:29:10.510Z,7.03
2023-05-23T22:31:37.839Z,3.47
2023-05-23T22:34:05.076Z,4.45
2023-05-23T22:36:34.332Z,4.53
2023-05-23T22:39:02.440Z,4.32
2023-05-23T22:41:29.660Z,3.83
2023-05-23T22:43:57.338Z,5.07
2023-05-23T22:46:24.584Z,5.40
2023-05-23T22:48:52.614Z,3.42
2023-05-23T22:51:19.922Z,4.05
2023-05-23T22:53:47.116Z,4.65
2023-05-23T22:56:15.510Z,5.18
2023-05-23T22:58:42.683Z,5.35
2023-05-23T23:01:10.271Z,4.72
2023-05-23T23:03:37.560Z,3.65
2023-05-23T23:06:09.296Z,5.57
2023-05-23T23:08:37.755Z,4.80
2023-05-23T23:11:05.016Z,3.30
2023-05-23T23:13:32.205Z,3.72
2023-05-23T23:15:59.386Z,4.18
2023-05-23T23:18:26.950Z,5.28
2023-05-23T23:20:57.066Z,4.85
2023-05-23T23:23:24.385Z,4.38
2023-05-23T23:25:52.382Z,4.75
2023-05-23T23:28:20.069Z,5.18
2023-05-23T23:30:47.659Z,4.82
2023-05-23T23:33:15.079Z,4.45
2023-05-23T23:35:45.684Z,4.00
2023-05-23T23:38:12.888Z,4.50
2023-05-23T23:40:40.241Z,6.13
2023-05-23T23:43:07.663Z,3.97
2023-05-23T23:45:34.845Z,3.95
2023-05-23T23:48:02.052Z,4.13
2023-05-23T23:50:31.386Z,4.25
2023-05-23T23:52:59.399Z,4.20
2023-05-23T23:55:26.633Z,4.30
2023-05-23T23:57:53.817Z,4.40
